sensor_id;sensor_type;location;lat;lon;timestamp;temperature;humidity
10030;DHT22;5055;52.054;8.524;2023-06-22T00:01:51;18.40;97.00
10030;DHT22;5055;52.054;8.524;2023-06-22T00:04:23;18.40;97.00
10030;DHT22;5055;52.054;8.524;2023-06-22T00:06:53;18.40;97.00
10030;DHT22;5055;52.054;8.524;2023-06-22T00:09:22;18.30;97.00
10030;DHT22;5055;52.054;8.524;2023-06-22T00:11:51;18.40;97.00
10030;DHT22;5055;52.054;8.524;2023-06-22T00:14:23;18.30;97.00
10030;DHT22;5055;52.054;8.524;2023-06-22T00:16:51;18.30;97.00
10030;DHT22;5055;52.054;8.524;2023-06-22T00:19:25;18.30;97.00
10030;DHT22;5055;52.054;8.524;2023-06-22T00:21:54;18.20;97.00
10030;DHT22;5055;52.054;8.524;2023-06-22T00:24:27;18.20;97.00
10030;DHT22;5055;52.054;8.524;2023-06-22T00:26:58;18.20;97.00
10030;DHT22;5055;52.054;8.524;2023-06-22T00:29:28;18.20;97.00
10030;DHT22;5055;52.054;8.524;2023-06-22T00:31:56;18.20;97.00
10030;DHT22;5055;52.054;8.524;2023-06-22T00:34:26;18.30;97.00
10030;DHT22;5055;52.054;8.524;2023-06-22T00:36:55;18.30;97.00
10030;DHT22;5055;52.054;8.524;2023-06-22T00:39:23;18.20;97.00
10030;DHT22;5055;52.054;8.524;2023-06-22T00:41:53;18.10;97.00
10030;DHT22;5055;52.054;8.524;2023-06-22T00:44:22;18.10;97.00
10030;DHT22;5055;52.054;8.524;2023-06-22T00:46:50;18.10;97.00
10030;DHT22;5055;52.054;8.524;2023-06-22T00:49:19;18.10;97.00
10030;DHT22;5055;52.054;8.524;2023-06-22T00:51:49;18.10;97.00
10030;DHT22;5055;52.054;8.524;2023-06-22T00:54:17;18.00;97.00
10030;DHT22;5055;52.054;8.524;2023-06-22T00:56:53;18.00;97.00
10030;DHT22;5055;52.054;8.524;2023-06-22T00:59:24;18.00;97.00
10030;DHT22;5055;52.054;8.524;2023-06-22T01:01:54;18.10;97.00
10030;DHT22;5055;52.054;8.524;2023-06-22T01:04:33;18.10;97.00
10030;DHT22;5055;52.054;8.524;2023-06-22T01:07:13;18.20;97.00
10030;DHT22;5055;52.054;8.524;2023-06-22T01:09:47;18.20;97.00
10030;DHT22;5055;52.054;8.524;2023-06-22T01:12:18;18.20;97.00
10030;DHT22;5055;52.054;8.524;2023-06-22T01:14:52;18.20;97.00
10030;DHT22;5055;52.054;8.524;2023-06-22T01:17:25;18.20;97.00
10030;DHT22;5055;52.054;8.524;2023-06-22T01:19:55;18.20;97.00
10030;DHT22;5055;52.054;8.524;2023-06-22T01:22:30;18.20;97.00
10030;DHT22;5055;52.054;8.524;2023-06-22T01:25:09;18.20;97.00
10030;DHT22;5055;52.054;8.524;2023-06-22T01:27:47;18.10;97.00
10030;DHT22;5055;52.054;8.524;2023-06-22T01:30:20;18.10;97.00
10030;DHT22;5055;52.054;8.524;2023-06-22T01:32:49;18.20;97.00
10030;DHT22;5055;52.054;8.524;2023-06-22T01:35:18;18.20;97.00
10030;DHT22;5055;52.054;8.524;2023-06-22T01:37:48;18.20;97.00
10030;DHT22;5055;52.054;8.524;2023-06-22T01:40:18;18.10;97.00
10030;DHT22;5055;52.054;8.524;2023-06-22T01:42:48;18.10;97.00
10030;DHT22;5055;52.054;8.524;2023-06-22T01:45:20;18.10;97.00
10030;DHT22;5055;52.054;8.524;2023-06-22T01:47:49;18.10;97.00
10030;DHT22;5055;52.054;8.524;2023-06-22T01:50:18;18.10;97.00
10030;DHT22;5055;52.054;8.524;2023-06-22T01:52:46;18.20;97.00
10030;DHT22;5055;52.054;8.524;2023-06-22T01:55:15;18.10;97.00
10030;DHT22;5055;52.054;8.524;2023-06-22T01:57:43;18.10;97.00
10030;DHT22;5055;52.054;8.524;2023-06-22T02:00:16;18.10;97.00
10030;DHT22;5055;52.054;8.524;2023-06-22T02:02:53;18.10;97.00
10030;DHT22;5055;52.054;8.524;2023-06-22T02:05:28;18.10;97.00
10030;DHT22;5055;52.054;8.524;2023-06-22T02:08:04;18.10;97.00
10030;DHT22;5055;52.054;8.524;2023-06-22T02:10:35;18.10;97.00
10030;DHT22;5055;52.054;8.524;2023-06-22T02:13:06;18.10;97.00
10030;DHT22;5055;52.054;8.524;2023-06-22T02:15:36;18.10;97.00
10030;DHT22;5055;52.054;8.524;2023-06-22T02:18:07;18.10;97.00
10030;DHT22;5055;52.054;8.524;2023-06-22T02:20:36;18.10;97.00
10030;DHT22;5055;52.054;8.524;2023-06-22T02:23:05;18.10;97.00
10030;DHT22;5055;52.054;8.524;2023-06-22T02:25:34;18.10;97.00
10030;DHT22;5055;52.054;8.524;2023-06-22T02:28:04;18.10;97.00
10030;DHT22;5055;52.054;8.524;2023-06-22T02:30:32;18.10;97.00
10030;DHT22;5055;52.054;8.524;2023-06-22T02:33:00;18.00;97.00
10030;DHT22;5055;52.054;8.524;2023-06-22T02:35:30;17.90;97.00
10030;DHT22;5055;52.054;8.524;2023-06-22T02:38:01;17.90;97.00
10030;DHT22;5055;52.054;8.524;2023-06-22T02:40:32;17.80;97.00
10030;DHT22;5055;52.054;8.524;2023-06-22T02:43:01;17.80;97.00
10030;DHT22;5055;52.054;8.524;2023-06-22T02:45:30;17.70;97.00
10030;DHT22;5055;52.054;8.524;2023-06-22T02:47:58;17.70;97.00
10030;DHT22;5055;52.054;8.524;2023-06-22T02:50:27;17.70;97.00
10030;DHT22;5055;52.054;8.524;2023-06-22T02:52:57;17.70;97.00
10030;DHT22;5055;52.054;8.524;2023-06-22T02:55:26;17.70;97.00
10030;DHT22;5055;52.054;8.524;2023-06-22T02:57:54;17.70;97.00
10030;DHT22;5055;52.054;8.524;2023-06-22T03:00:24;17.60;97.00
10030;DHT22;5055;52.054;8.524;2023-06-22T03:02:58;17.60;97.00
10030;DHT22;5055;52.054;8.524;2023-06-22T03:05:26;17.60;97.00
10030;DHT22;5055;52.054;8.524;2023-06-22T03:07:56;17.60;97.00
10030;DHT22;5055;52.054;8.524;2023-06-22T03:10:25;17.50;97.00
10030;DHT22;5055;52.054;8.524;2023-06-22T03:12:55;17.50;97.00
10030;DHT22;5055;52.054;8.524;2023-06-22T03:15:23;17.40;97.00
10030;DHT22;5055;52.054;8.524;2023-06-22T03:17:52;17.40;97.00
10030;DHT22;5055;52.054;8.524;2023-06-22T03:20:21;17.40;97.00
10030;DHT22;5055;52.054;8.524;2023-06-22T03:22:50;17.30;97.00
10030;DHT22;5055;52.054;8.524;2023-06-22T03:25:20;17.30;97.00
10030;DHT22;5055;52.054;8.524;2023-06-22T03:27:48;17.30;97.00
10030;DHT22;5055;52.054;8.524;2023-06-22T03:30:17;17.30;97.00
10030;DHT22;5055;52.054;8.524;2023-06-22T03:32:45;17.30;97.00
10030;DHT22;5055;52.054;8.524;2023-06-22T03:35:15;17.30;97.00
10030;DHT22;5055;52.054;8.524;2023-06-22T03:37:43;17.30;97.00
10030;DHT22;5055;52.054;8.524;2023-06-22T03:40:12;17.30;97.00
10030;DHT22;5055;52.054;8.524;2023-06-22T03:42:42;17.40;97.00
10030;DHT22;5055;52.054;8.524;2023-06-22T03:45:10;17.40;97.00
10030;DHT22;5055;52.054;8.524;2023-06-22T03:47:39;17.40;97.00
10030;DHT22;5055;52.054;8.524;2023-06-22T03:50:08;17.40;97.00
10030;DHT22;5055;52.054;8.524;2023-06-22T03:52:36;17.50;97.00
10030;DHT22;5055;52.054;8.524;2023-06-22T03:55:06;17.50;97.00
10030;DHT22;5055;52.054;8.524;2023-06-22T03:57:35;17.60;97.00
10030;DHT22;5055;52.054;8.524;2023-06-22T04:00:06;17.60;97.00
10030;DHT22;5055;52.054;8.524;2023-06-22T04:02:37;17.70;97.00
10030;DHT22;5055;52.054;8.524;2023-06-22T04:05:06;17.70;97.00
10030;DHT22;5055;52.054;8.524;2023-06-22T04:07:35;17.70;97.00
10030;DHT22;5055;52.054;8.524;2023-06-22T04:10:04;17.70;97.00
10030;DHT22;5055;52.054;8.524;2023-06-22T04:12:34;17.70;97.00
10030;DHT22;5055;52.054;8.524;2023-06-22T04:15:05;17.70;97.00
10030;DHT22;5055;52.054;8.524;2023-06-22T04:17:33;17.80;97.00
10030;DHT22;5055;52.054;8.524;2023-06-22T04:20:02;17.80;97.00
10030;DHT22;5055;52.054;8.524;2023-06-22T04:22:32;17.80;97.00
10030;DHT22;5055;52.054;8.524;2023-06-22T04:25:00;17.80;97.00
10030;DHT22;5055;52.054;8.524;2023-06-22T04:27:28;17.90;97.00
10030;DHT22;5055;52.054;8.524;2023-06-22T04:29:57;17.90;97.00
10030;DHT22;5055;52.054;8.524;2023-06-22T04:32:29;18.00;97.00
10030;DHT22;5055;52.054;8.524;2023-06-22T04:34:57;18.00;97.00
10030;DHT22;5055;52.054;8.524;2023-06-22T04:37:27;18.00;97.00
10030;DHT22;5055;52.054;8.524;2023-06-22T04:39:55;18.10;97.00
10030;DHT22;5055;52.054;8.524;2023-06-22T04:42:26;18.10;97.00
10030;DHT22;5055;52.054;8.524;2023-06-22T04:44:55;18.20;97.00
10030;DHT22;5055;52.054;8.524;2023-06-22T04:47:27;18.30;97.00
10030;DHT22;5055;52.054;8.524;2023-06-22T04:49:56;18.30;97.00
10030;DHT22;5055;52.054;8.524;2023-06-22T04:52:24;18.30;97.00
10030;DHT22;5055;52.054;8.524;2023-06-22T04:54:52;18.40;97.00
10030;DHT22;5055;52.054;8.524;2023-06-22T04:57:26;18.50;97.00
10030;DHT22;5055;52.054;8.524;2023-06-22T05:00:04;18.60;97.00
10030;DHT22;5055;52.054;8.524;2023-06-22T05:02:46;18.60;97.00
10030;DHT22;5055;52.054;8.524;2023-06-22T05:05:15;18.70;97.00
10030;DHT22;5055;52.054;8.524;2023-06-22T05:07:45;18.80;97.00
10030;DHT22;5055;52.054;8.524;2023-06-22T05:10:15;18.90;97.00
10030;DHT22;5055;52.054;8.524;2023-06-22T05:12:44;19.00;97.00
10030;DHT22;5055;52.054;8.524;2023-06-22T05:15:12;19.10;97.00
10030;DHT22;5055;52.054;8.524;2023-06-22T05:17:42;19.20;97.00
10030;DHT22;5055;52.054;8.524;2023-06-22T05:20:13;19.20;97.00
10030;DHT22;5055;52.054;8.524;2023-06-22T05:22:45;19.30;97.00
10030;DHT22;5055;52.054;8.524;2023-06-22T05:25:13;19.40;97.00
10030;DHT22;5055;52.054;8.524;2023-06-22T05:27:41;19.50;97.00
10030;DHT22;5055;52.054;8.524;2023-06-22T05:30:11;19.60;97.00
10030;DHT22;5055;52.054;8.524;2023-06-22T05:32:39;19.60;97.00
10030;DHT22;5055;52.054;8.524;2023-06-22T05:35:09;19.60;97.00
10030;DHT22;5055;52.054;8.524;2023-06-22T05:37:39;19.70;97.00
10030;DHT22;5055;52.054;8.524;2023-06-22T05:40:09;19.90;97.00
10030;DHT22;5055;52.054;8.524;2023-06-22T05:42:38;20.10;97.00
10030;DHT22;5055;52.054;8.524;2023-06-22T05:45:07;20.40;97.00
10030;DHT22;5055;52.054;8.524;2023-06-22T05:47:35;20.70;97.00
10030;DHT22;5055;52.054;8.524;2023-06-22T05:50:05;20.80;97.00
10030;DHT22;5055;52.054;8.524;2023-06-22T05:52:40;21.00;97.00
10030;DHT22;5055;52.054;8.524;2023-06-22T05:55:09;21.20;97.00
10030;DHT22;5055;52.054;8.524;2023-06-22T05:57:38;21.40;97.00
10030;DHT22;5055;52.054;8.524;2023-06-22T06:00:08;21.60;97.00
10030;DHT22;5055;52.054;8.524;2023-06-22T06:02:39;21.80;97.00
10030;DHT22;5055;52.054;8.524;2023-06-22T06:05:11;22.00;97.00
10030;DHT22;5055;52.054;8.524;2023-06-22T06:07:42;22.10;97.00
10030;DHT22;5055;52.054;8.524;2023-06-22T06:10:11;22.20;97.00
10030;DHT22;5055;52.054;8.524;2023-06-22T06:12:39;22.30;97.00
10030;DHT22;5055;52.054;8.524;2023-06-22T06:15:09;22.40;97.00
10030;DHT22;5055;52.054;8.524;2023-06-22T06:17:45;22.50;97.00
10030;DHT22;5055;52.054;8.524;2023-06-22T06:20:14;22.70;97.00
10030;DHT22;5055;52.054;8.524;2023-06-22T06:22:44;22.80;97.00
10030;DHT22;5055;52.054;8.524;2023-06-22T06:25:13;23.00;97.00
10030;DHT22;5055;52.054;8.524;2023-06-22T06:27:43;22.90;97.00
10030;DHT22;5055;52.054;8.524;2023-06-22T06:30:12;22.70;97.00
10030;DHT22;5055;52.054;8.524;2023-06-22T06:32:42;22.80;97.00
10030;DHT22;5055;52.054;8.524;2023-06-22T06:35:14;22.80;97.00
10030;DHT22;5055;52.054;8.524;2023-06-22T06:37:46;22.80;97.00
10030;DHT22;5055;52.054;8.524;2023-06-22T06:40:15;22.90;97.00
10030;DHT22;5055;52.054;8.524;2023-06-22T06:42:45;23.10;97.00
10030;DHT22;5055;52.054;8.524;2023-06-22T06:45:16;23.30;97.00
10030;DHT22;5055;52.054;8.524;2023-06-22T06:47:45;23.50;97.00
10030;DHT22;5055;52.054;8.524;2023-06-22T06:50:14;23.50;97.00
10030;DHT22;5055;52.054;8.524;2023-06-22T06:52:44;23.60;97.00
10030;DHT22;5055;52.054;8.524;2023-06-22T06:55:16;23.70;97.00
10030;DHT22;5055;52.054;8.524;2023-06-22T06:57:46;23.80;97.00
10030;DHT22;5055;52.054;8.524;2023-06-22T07:00:19;23.80;97.00
10030;DHT22;5055;52.054;8.524;2023-06-22T07:02:48;23.90;97.00
10030;DHT22;5055;52.054;8.524;2023-06-22T07:05:16;23.90;97.00
10030;DHT22;5055;52.054;8.524;2023-06-22T07:07:46;23.90;97.00
10030;DHT22;5055;52.054;8.524;2023-06-22T07:10:15;23.70;97.00
10030;DHT22;5055;52.054;8.524;2023-06-22T07:12:44;23.40;97.00
10030;DHT22;5055;52.054;8.524;2023-06-22T07:15:13;23.30;97.00
10030;DHT22;5055;52.054;8.524;2023-06-22T07:17:42;23.30;97.00
10030;DHT22;5055;52.054;8.524;2023-06-22T07:20:11;23.30;97.00
10030;DHT22;5055;52.054;8.524;2023-06-22T07:22:41;23.30;97.00
10030;DHT22;5055;52.054;8.524;2023-06-22T07:25:11;23.40;97.00
10030;DHT22;5055;52.054;8.524;2023-06-22T07:27:47;23.40;97.00
10030;DHT22;5055;52.054;8.524;2023-06-22T07:30:24;23.40;97.00
10030;DHT22;5055;52.054;8.524;2023-06-22T07:32:54;23.40;97.00
10030;DHT22;5055;52.054;8.524;2023-06-22T07:35:23;23.30;97.00
10030;DHT22;5055;52.054;8.524;2023-06-22T07:37:51;23.30;97.00
10030;DHT22;5055;52.054;8.524;2023-06-22T07:40:21;23.30;97.00
10030;DHT22;5055;52.054;8.524;2023-06-22T07:42:50;23.40;97.00
10030;DHT22;5055;52.054;8.524;2023-06-22T07:45:20;23.50;97.00
10030;DHT22;5055;52.054;8.524;2023-06-22T07:47:49;23.50;97.00
10030;DHT22;5055;52.054;8.524;2023-06-22T07:50:17;23.60;97.00
10030;DHT22;5055;52.054;8.524;2023-06-22T07:52:46;23.60;97.00
10030;DHT22;5055;52.054;8.524;2023-06-22T07:55:15;23.60;97.00
10030;DHT22;5055;52.054;8.524;2023-06-22T07:57:48;23.70;97.00
10030;DHT22;5055;52.054;8.524;2023-06-22T08:00:19;23.70;97.00
10030;DHT22;5055;52.054;8.524;2023-06-22T08:02:48;23.70;97.00
10030;DHT22;5055;52.054;8.524;2023-06-22T08:05:16;23.70;97.00
10030;DHT22;5055;52.054;8.524;2023-06-22T08:07:48;23.60;97.00
10030;DHT22;5055;52.054;8.524;2023-06-22T08:10:17;23.60;97.00
10030;DHT22;5055;52.054;8.524;2023-06-22T08:12:47;23.60;97.00
10030;DHT22;5055;52.054;8.524;2023-06-22T08:15:16;23.70;97.00
10030;DHT22;5055;52.054;8.524;2023-06-22T08:17:45;23.80;97.00
10030;DHT22;5055;52.054;8.524;2023-06-22T08:20:13;23.90;97.00
10030;DHT22;5055;52.054;8.524;2023-06-22T08:22:43;24.00;97.00
10030;DHT22;5055;52.054;8.524;2023-06-22T08:25:12;24.00;97.00
10030;DHT22;5055;52.054;8.524;2023-06-22T08:27:46;23.90;97.00
10030;DHT22;5055;52.054;8.524;2023-06-22T08:30:15;23.90;97.00
10030;DHT22;5055;52.054;8.524;2023-06-22T08:32:45;23.90;97.00
10030;DHT22;5055;52.054;8.524;2023-06-22T08:35:14;24.00;97.00
10030;DHT22;5055;52.054;8.524;2023-06-22T08:37:42;24.20;97.00
10030;DHT22;5055;52.054;8.524;2023-06-22T08:40:12;24.50;97.00
10030;DHT22;5055;52.054;8.524;2023-06-22T08:42:41;24.80;97.00
10030;DHT22;5055;52.054;8.524;2023-06-22T08:45:11;25.20;97.00
10030;DHT22;5055;52.054;8.524;2023-06-22T08:47:40;25.40;97.00
10030;DHT22;5055;52.054;8.524;2023-06-22T08:50:10;25.60;97.00
10030;DHT22;5055;52.054;8.524;2023-06-22T08:52:40;25.70;97.00
10030;DHT22;5055;52.054;8.524;2023-06-22T08:55:09;25.80;97.00
10030;DHT22;5055;52.054;8.524;2023-06-22T08:57:38;25.90;97.00
10030;DHT22;5055;52.054;8.524;2023-06-22T09:00:08;26.10;97.00
10030;DHT22;5055;52.054;8.524;2023-06-22T09:02:46;26.10;97.00
10030;DHT22;5055;52.054;8.524;2023-06-22T09:05:15;26.20;97.00
10030;DHT22;5055;52.054;8.524;2023-06-22T09:07:47;26.30;97.00
10030;DHT22;5055;52.054;8.524;2023-06-22T09:10:16;26.60;97.00
10030;DHT22;5055;52.054;8.524;2023-06-22T09:12:45;26.90;97.00
10030;DHT22;5055;52.054;8.524;2023-06-22T09:15:14;27.30;97.00
10030;DHT22;5055;52.054;8.524;2023-06-22T09:17:46;27.60;97.00
10030;DHT22;5055;52.054;8.524;2023-06-22T09:20:15;27.90;97.00
10030;DHT22;5055;52.054;8.524;2023-06-22T09:22:44;27.90;97.00
10030;DHT22;5055;52.054;8.524;2023-06-22T09:25:13;27.90;97.00
10030;DHT22;5055;52.054;8.524;2023-06-22T09:27:42;28.20;97.00
10030;DHT22;5055;52.054;8.524;2023-06-22T09:30:11;28.50;97.00
10030;DHT22;5055;52.054;8.524;2023-06-22T09:32:40;28.60;97.00
10030;DHT22;5055;52.054;8.524;2023-06-22T09:35:10;28.60;97.00
10030;DHT22;5055;52.054;8.524;2023-06-22T09:37:40;28.50;97.00
10030;DHT22;5055;52.054;8.524;2023-06-22T09:40:09;28.50;97.00
10030;DHT22;5055;52.054;8.524;2023-06-22T09:42:41;28.40;97.00
10030;DHT22;5055;52.054;8.524;2023-06-22T09:45:10;28.30;97.00
10030;DHT22;5055;52.054;8.524;2023-06-22T09:47:38;28.40;97.00
10030;DHT22;5055;52.054;8.524;2023-06-22T09:50:07;28.10;97.00
10030;DHT22;5055;52.054;8.524;2023-06-22T09:52:38;28.10;97.00
10030;DHT22;5055;52.054;8.524;2023-06-22T09:55:15;28.00;97.00
10030;DHT22;5055;52.054;8.524;2023-06-22T09:57:44;27.90;97.00
10030;DHT22;5055;52.054;8.524;2023-06-22T10:00:13;27.80;97.00
10030;DHT22;5055;52.054;8.524;2023-06-22T10:02:42;27.70;97.00
10030;DHT22;5055;52.054;8.524;2023-06-22T10:05:11;27.90;97.00
10030;DHT22;5055;52.054;8.524;2023-06-22T10:07:41;28.30;97.00
10030;DHT22;5055;52.054;8.524;2023-06-22T10:10:12;28.20;97.00
10030;DHT22;5055;52.054;8.524;2023-06-22T10:12:46;28.30;97.00
10030;DHT22;5055;52.054;8.524;2023-06-22T10:15:16;28.80;97.00
10030;DHT22;5055;52.054;8.524;2023-06-22T10:17:45;29.00;97.00
10030;DHT22;5055;52.054;8.524;2023-06-22T10:20:14;29.00;97.00
10030;DHT22;5055;52.054;8.524;2023-06-22T10:22:45;29.70;97.00
10030;DHT22;5055;52.054;8.524;2023-06-22T10:25:14;29.60;97.00
10030;DHT22;5055;52.054;8.524;2023-06-22T10:27:42;29.40;97.00
10030;DHT22;5055;52.054;8.524;2023-06-22T10:30:12;29.10;97.00
10030;DHT22;5055;52.054;8.524;2023-06-22T10:32:41;29.10;97.00
10030;DHT22;5055;52.054;8.524;2023-06-22T10:35:11;29.10;97.00
10030;DHT22;5055;52.054;8.524;2023-06-22T10:37:43;28.90;97.00
10030;DHT22;5055;52.054;8.524;2023-06-22T10:40:12;28.80;97.00
10030;DHT22;5055;52.054;8.524;2023-06-22T10:42:42;29.10;97.00
10030;DHT22;5055;52.054;8.524;2023-06-22T10:45:11;29.50;97.00
10030;DHT22;5055;52.054;8.524;2023-06-22T10:47:40;29.50;97.00
10030;DHT22;5055;52.054;8.524;2023-06-22T10:50:10;29.60;97.00
10030;DHT22;5055;52.054;8.524;2023-06-22T10:52:39;29.30;97.00
10030;DHT22;5055;52.054;8.524;2023-06-22T10:55:10;29.60;97.00
10030;DHT22;5055;52.054;8.524;2023-06-22T10:57:38;29.80;97.00
10030;DHT22;5055;52.054;8.524;2023-06-22T11:00:13;29.80;97.00
10030;DHT22;5055;52.054;8.524;2023-06-22T11:02:43;29.60;97.00
10030;DHT22;5055;52.054;8.524;2023-06-22T11:05:11;29.90;97.00
10030;DHT22;5055;52.054;8.524;2023-06-22T11:07:42;29.90;97.00
10030;DHT22;5055;52.054;8.524;2023-06-22T11:10:12;29.80;97.00
10030;DHT22;5055;52.054;8.524;2023-06-22T11:12:41;29.70;97.00
10030;DHT22;5055;52.054;8.524;2023-06-22T11:15:10;29.70;97.00
10030;DHT22;5055;52.054;8.524;2023-06-22T11:17:39;29.80;97.00
10030;DHT22;5055;52.054;8.524;2023-06-22T11:20:08;30.10;97.00
10030;DHT22;5055;52.054;8.524;2023-06-22T11:22:38;30.30;97.00
10030;DHT22;5055;52.054;8.524;2023-06-22T11:25:07;30.50;97.00
10030;DHT22;5055;52.054;8.524;2023-06-22T11:27:37;30.60;97.00
10030;DHT22;5055;52.054;8.524;2023-06-22T11:30:07;30.70;97.00
10030;DHT22;5055;52.054;8.524;2023-06-22T11:32:35;30.60;97.00
10030;DHT22;5055;52.054;8.524;2023-06-22T11:35:05;30.60;97.00
10030;DHT22;5055;52.054;8.524;2023-06-22T11:37:33;30.80;97.00
10030;DHT22;5055;52.054;8.524;2023-06-22T11:40:01;31.00;97.00
10030;DHT22;5055;52.054;8.524;2023-06-22T11:42:34;31.10;97.00
10030;DHT22;5055;52.054;8.524;2023-06-22T11:45:07;30.70;97.00
10030;DHT22;5055;52.054;8.524;2023-06-22T11:47:35;30.60;97.00
10030;DHT22;5055;52.054;8.524;2023-06-22T11:50:05;30.60;97.00
10030;DHT22;5055;52.054;8.524;2023-06-22T11:52:34;30.60;97.00
10030;DHT22;5055;52.054;8.524;2023-06-22T11:55:04;30.50;97.00
10030;DHT22;5055;52.054;8.524;2023-06-22T11:57:34;30.40;97.00
10030;DHT22;5055;52.054;8.524;2023-06-22T12:00:05;30.20;97.00
10030;DHT22;5055;52.054;8.524;2023-06-22T12:02:44;29.80;97.00
10030;DHT22;5055;52.054;8.524;2023-06-22T12:05:13;29.60;97.00
10030;DHT22;5055;52.054;8.524;2023-06-22T12:07:42;29.50;97.00
10030;DHT22;5055;52.054;8.524;2023-06-22T12:10:10;29.40;97.00
10030;DHT22;5055;52.054;8.524;2023-06-22T12:12:39;29.20;97.00
10030;DHT22;5055;52.054;8.524;2023-06-22T12:15:10;29.20;97.00
10030;DHT22;5055;52.054;8.524;2023-06-22T12:17:39;29.20;97.00
10030;DHT22;5055;52.054;8.524;2023-06-22T12:20:08;29.10;97.00
10030;DHT22;5055;52.054;8.524;2023-06-22T12:22:41;28.90;97.00
10030;DHT22;5055;52.054;8.524;2023-06-22T12:25:09;28.80;97.00
10030;DHT22;5055;52.054;8.524;2023-06-22T12:27:38;28.60;97.00
10030;DHT22;5055;52.054;8.524;2023-06-22T12:30:08;28.50;97.00
10030;DHT22;5055;52.054;8.524;2023-06-22T12:32:37;28.40;97.00
10030;DHT22;5055;52.054;8.524;2023-06-22T12:35:07;28.30;97.00
10030;DHT22;5055;52.054;8.524;2023-06-22T12:37:41;28.10;97.00
10030;DHT22;5055;52.054;8.524;2023-06-22T12:40:10;27.90;97.00
10030;DHT22;5055;52.054;8.524;2023-06-22T12:42:39;27.70;97.00
10030;DHT22;5055;52.054;8.524;2023-06-22T12:45:09;27.60;97.00
10030;DHT22;5055;52.054;8.524;2023-06-22T12:47:39;27.40;97.00
10030;DHT22;5055;52.054;8.524;2023-06-22T12:50:08;27.30;97.00
10030;DHT22;5055;52.054;8.524;2023-06-22T12:52:39;27.20;97.00
10030;DHT22;5055;52.054;8.524;2023-06-22T12:55:08;27.20;97.00
10030;DHT22;5055;52.054;8.524;2023-06-22T12:57:37;27.10;97.00
10030;DHT22;5055;52.054;8.524;2023-06-22T13:00:07;27.10;97.00
10030;DHT22;5055;52.054;8.524;2023-06-22T13:02:37;27.00;97.00
10030;DHT22;5055;52.054;8.524;2023-06-22T13:05:07;26.90;97.00
10030;DHT22;5055;52.054;8.524;2023-06-22T13:07:35;26.70;97.00
10030;DHT22;5055;52.054;8.524;2023-06-22T13:10:05;26.60;97.00
10030;DHT22;5055;52.054;8.524;2023-06-22T13:12:37;26.40;97.00
10030;DHT22;5055;52.054;8.524;2023-06-22T13:15:07;26.20;97.00
10030;DHT22;5055;52.054;8.524;2023-06-22T13:17:35;26.00;97.00
10030;DHT22;5055;52.054;8.524;2023-06-22T13:20:05;25.90;97.00
10030;DHT22;5055;52.054;8.524;2023-06-22T13:22:35;25.70;97.00
10030;DHT22;5055;52.054;8.524;2023-06-22T13:25:08;25.60;97.00
10030;DHT22;5055;52.054;8.524;2023-06-22T13:27:40;25.50;97.00
10030;DHT22;5055;52.054;8.524;2023-06-22T13:30:09;25.40;97.00
10030;DHT22;5055;52.054;8.524;2023-06-22T13:32:41;25.20;97.00
10030;DHT22;5055;52.054;8.524;2023-06-22T13:35:10;25.10;97.00
10030;DHT22;5055;52.054;8.524;2023-06-22T13:37:41;25.00;97.00
10030;DHT22;5055;52.054;8.524;2023-06-22T13:40:09;24.90;97.00
10030;DHT22;5055;52.054;8.524;2023-06-22T13:42:38;24.70;97.00
10030;DHT22;5055;52.054;8.524;2023-06-22T13:45:07;24.60;97.00
10030;DHT22;5055;52.054;8.524;2023-06-22T13:47:36;24.50;97.00
10030;DHT22;5055;52.054;8.524;2023-06-22T13:50:05;24.40;97.00
10030;DHT22;5055;52.054;8.524;2023-06-22T13:52:34;24.30;97.00
10030;DHT22;5055;52.054;8.524;2023-06-22T13:55:05;24.20;97.00
10030;DHT22;5055;52.054;8.524;2023-06-22T13:57:34;24.10;97.00
10030;DHT22;5055;52.054;8.524;2023-06-22T14:00:05;24.00;97.00
10030;DHT22;5055;52.054;8.524;2023-06-22T14:02:34;23.70;97.00
10030;DHT22;5055;52.054;8.524;2023-06-22T14:05:03;23.60;97.00
10030;DHT22;5055;52.054;8.524;2023-06-22T14:07:33;23.60;97.00
10030;DHT22;5055;52.054;8.524;2023-06-22T14:10:01;23.50;97.00
10030;DHT22;5055;52.054;8.524;2023-06-22T14:12:31;23.40;97.00
10030;DHT22;5055;52.054;8.524;2023-06-22T14:15:00;23.10;97.00
10030;DHT22;5055;52.054;8.524;2023-06-22T14:17:28;22.90;97.00
10030;DHT22;5055;52.054;8.524;2023-06-22T14:19:56;22.70;97.00
10030;DHT22;5055;52.054;8.524;2023-06-22T14:22:25;22.60;97.00
10030;DHT22;5055;52.054;8.524;2023-06-22T14:24:56;22.40;97.00
10030;DHT22;5055;52.054;8.524;2023-06-22T14:27:25;22.20;97.00
10030;DHT22;5055;52.054;8.524;2023-06-22T14:29:55;22.10;97.00
10030;DHT22;5055;52.054;8.524;2023-06-22T14:32:24;21.90;97.00
10030;DHT22;5055;52.054;8.524;2023-06-22T14:34:53;21.90;97.00
10030;DHT22;5055;52.054;8.524;2023-06-22T14:37:24;21.80;97.00
10030;DHT22;5055;52.054;8.524;2023-06-22T14:39:52;21.70;97.00
10030;DHT22;5055;52.054;8.524;2023-06-22T14:42:21;21.60;97.00
10030;DHT22;5055;52.054;8.524;2023-06-22T14:44:49;21.60;97.00
10030;DHT22;5055;52.054;8.524;2023-06-22T14:47:19;21.60;97.00
10030;DHT22;5055;52.054;8.524;2023-06-22T14:49:48;21.50;97.00
10030;DHT22;5055;52.054;8.524;2023-06-22T14:52:16;21.50;97.00
10030;DHT22;5055;52.054;8.524;2023-06-22T14:54:45;21.50;97.00
10030;DHT22;5055;52.054;8.524;2023-06-22T14:57:13;21.50;97.00
10030;DHT22;5055;52.054;8.524;2023-06-22T14:59:45;21.50;97.00
10030;DHT22;5055;52.054;8.524;2023-06-22T15:02:13;21.50;97.00
10030;DHT22;5055;52.054;8.524;2023-06-22T15:04:43;21.50;97.00
10030;DHT22;5055;52.054;8.524;2023-06-22T15:07:11;21.60;97.00
10030;DHT22;5055;52.054;8.524;2023-06-22T15:09:40;21.70;97.00
10030;DHT22;5055;52.054;8.524;2023-06-22T15:12:09;21.80;97.00
10030;DHT22;5055;52.054;8.524;2023-06-22T15:14:39;22.00;97.00
10030;DHT22;5055;52.054;8.524;2023-06-22T15:17:08;22.10;97.00
10030;DHT22;5055;52.054;8.524;2023-06-22T15:19:37;22.20;97.00
10030;DHT22;5055;52.054;8.524;2023-06-22T15:22:07;22.30;97.00
10030;DHT22;5055;52.054;8.524;2023-06-22T15:24:36;22.40;97.00
10030;DHT22;5055;52.054;8.524;2023-06-22T15:27:05;22.50;97.00
10030;DHT22;5055;52.054;8.524;2023-06-22T15:29:34;22.60;97.00
10030;DHT22;5055;52.054;8.524;2023-06-22T15:32:02;22.70;97.00
10030;DHT22;5055;52.054;8.524;2023-06-22T15:34:30;22.70;97.00
10030;DHT22;5055;52.054;8.524;2023-06-22T15:36:59;22.80;97.00
10030;DHT22;5055;52.054;8.524;2023-06-22T15:39:29;22.80;97.00
10030;DHT22;5055;52.054;8.524;2023-06-22T15:41:57;22.80;97.00
10030;DHT22;5055;52.054;8.524;2023-06-22T15:44:26;22.90;97.00
10030;DHT22;5055;52.054;8.524;2023-06-22T15:46:54;23.00;97.00
10030;DHT22;5055;52.054;8.524;2023-06-22T15:49:23;23.00;97.00
10030;DHT22;5055;52.054;8.524;2023-06-22T15:51:51;23.10;97.00
10030;DHT22;5055;52.054;8.524;2023-06-22T15:54:20;23.20;97.00
10030;DHT22;5055;52.054;8.524;2023-06-22T15:56:50;23.30;97.00
10030;DHT22;5055;52.054;8.524;2023-06-22T15:59:18;23.30;97.00
10030;DHT22;5055;52.054;8.524;2023-06-22T16:01:47;23.30;97.00